Aeroporto :
LOGIN :

Iscrizione | Disclaimer

   EN    FR    IT 

 










Sommario :    VFR   VFR Marginale   IFR   IFR Intensivo   IFR Molto Intensivo
Visibilità : 
Base nubi : 
>= 8 km
>= 3000ft
5 / 8 km
1000 / 3000 ft
1500m / 5 km
500 / 1000 ft
800 / 1500m
200 / 500 ft
< 800m
< 200 ft
Simboli :   Temporali  Nebbia  Neve Forte  Precipitazioni Forti  Vento > 20 kt
SIGMETs :   Varie  Temporali  Ghiacco  Turbolenza  Onda orograficha  Ceneri Vulcaniche






- Altitudine del aeroporto : 1234 ft
- Codice IATA : LUX


ELLX - Luxembourg Findel

ULTIMO METAR :
  • 290320Z 02017KT 9999 BKN025 03/M04 Q1021 NOSIG

METARs OBSOLETI :
  • 290250Z 02013KT 9999 BKN025 03/M03 Q1022 NOSIG
  • 290220Z AUTO 02015KT 9999 OVC025/// 03/M03 Q1022 NOSIG
  • 290150Z AUTO 01014G26KT 9999 OVC025/// 03/M02 Q1022 NOSIG
  • 290120Z AUTO 03014KT 9999 OVC023/// 04/M01 Q1022 NOSIG
  • 290050Z AUTO 02015KT 9999 BKN021/// BKN025/// OVC094/// 04/M00 Q1022 NOSIG

TAF TAF ELLX
Valido dal 29 a 00 ore il 30 a 06 ore UTC


282300Z 2900/3006 02015KT CAVOK
TEMPO 2910/2921 02018G35KT SHRASN -SHRAGS SCT015TCU
ATIS : +352 4798 27300
Met : +352 4798 27010 / 27050



MetMap, La meteo Aeronautica in un colpo d'occhio ! - Copyright ORBIFLY Dicembre 2007 - Disclaimer

ORBIFLY MET'MAP TEAM :

Programmazione e sviluppo : Alexandra Zaïnal
Concezione : Baudouin d'Aumeries
Aiuto per la programmazione : Marc-Olivier Méhu
Supporto tecnico e logistico : Manuel Goepfert
Aiuto per la traduzione : Arnaldo La Scala

Contatto : metmap@orbifly.com




FONTI E CREDITI :

   NOAA